sensor_id;sensor_type;location;lat;lon;timestamp;pressure;altitude;pressure_sealevel;temperature;humidity
78751;BME280;68070;50.954;11.060;2023-03-15T00:02:37;98431.25;;;1.53;70.14
78751;BME280;68070;50.954;11.060;2023-03-15T00:05:22;98436.97;;;1.58;69.99
78751;BME280;68070;50.954;11.060;2023-03-15T00:08:06;98436.90;;;1.59;70.45
78751;BME280;68070;50.954;11.060;2023-03-15T00:10:51;98436.27;;;1.59;70.51
78751;BME280;68070;50.954;11.060;2023-03-15T00:13:35;98444.52;;;1.58;70.53
78751;BME280;68070;50.954;11.060;2023-03-15T00:16:19;98447.56;;;1.57;70.42
78751;BME280;68070;50.954;11.060;2023-03-15T00:19:04;98451.77;;;1.53;70.35
78751;BME280;68070;50.954;11.060;2023-03-15T00:21:48;98457.12;;;1.51;70.30
78751;BME280;68070;50.954;11.060;2023-03-15T00:24:33;98462.64;;;1.57;70.02
78751;BME280;68070;50.954;11.060;2023-03-15T00:27:18;98463.19;;;1.56;70.06
78751;BME280;68070;50.954;11.060;2023-03-15T00:30:02;98470.96;;;1.55;69.38
78751;BME280;68070;50.954;11.060;2023-03-15T00:32:51;98474.79;;;1.52;69.42
78751;BME280;68070;50.954;11.060;2023-03-15T00:35:43;98478.53;;;1.55;69.53
78751;BME280;68070;50.954;11.060;2023-03-15T00:38:28;98484.64;;;1.59;69.40
78751;BME280;68070;50.954;11.060;2023-03-15T00:41:14;98488.97;;;1.60;68.69
78751;BME280;68070;50.954;11.060;2023-03-15T00:43:59;98497.09;;;1.55;68.45
78751;BME280;68070;50.954;11.060;2023-03-15T00:46:45;98500.70;;;1.49;69.01
78751;BME280;68070;50.954;11.060;2023-03-15T00:49:29;98501.41;;;1.49;69.29
78751;BME280;68070;50.954;11.060;2023-03-15T00:52:13;98504.48;;;1.47;68.93
78751;BME280;68070;50.954;11.060;2023-03-15T00:54:58;98510.38;;;1.40;69.33
78751;BME280;68070;50.954;11.060;2023-03-15T00:57:43;98511.59;;;1.33;69.45
78751;BME280;68070;50.954;11.060;2023-03-15T01:00:28;98509.58;;;1.35;69.47
78751;BME280;68070;50.954;11.060;2023-03-15T01:03:12;98507.27;;;1.36;69.19
78751;BME280;68070;50.954;11.060;2023-03-15T01:06:00;98509.64;;;1.30;69.31
78751;BME280;68070;50.954;11.060;2023-03-15T01:08:47;98505.77;;;1.23;69.35
78751;BME280;68070;50.954;11.060;2023-03-15T01:11:33;98510.01;;;1.18;69.70
78751;BME280;68070;50.954;11.060;2023-03-15T01:14:17;98509.13;;;1.18;69.73
78751;BME280;68070;50.954;11.060;2023-03-15T01:17:02;98507.42;;;1.16;69.44
78751;BME280;68070;50.954;11.060;2023-03-15T01:19:46;98510.83;;;1.11;69.64
78751;BME280;68070;50.954;11.060;2023-03-15T01:22:31;98511.52;;;1.08;69.34
78751;BME280;68070;50.954;11.060;2023-03-15T01:25:16;98516.84;;;1.10;69.16
78751;BME280;68070;50.954;11.060;2023-03-15T01:28:01;98517.79;;;1.12;68.91
78751;BME280;68070;50.954;11.060;2023-03-15T01:30:49;98520.71;;;1.06;69.01
78751;BME280;68070;50.954;11.060;2023-03-15T01:33:33;98527.10;;;0.96;69.29
78751;BME280;68070;50.954;11.060;2023-03-15T01:36:18;98522.86;;;0.89;69.77
78751;BME280;68070;50.954;11.060;2023-03-15T01:39:03;98517.67;;;0.91;69.72
78751;BME280;68070;50.954;11.060;2023-03-15T01:41:56;98520.95;;;0.88;69.24
78751;BME280;68070;50.954;11.060;2023-03-15T01:44:55;98527.45;;;0.84;69.75
78751;BME280;68070;50.954;11.060;2023-03-15T01:47:40;98534.45;;;0.84;69.80
78751;BME280;68070;50.954;11.060;2023-03-15T01:50:27;98535.02;;;0.87;69.81
78751;BME280;68070;50.954;11.060;2023-03-15T01:53:12;98540.86;;;0.82;69.68
78751;BME280;68070;50.954;11.060;2023-03-15T01:55:56;98540.35;;;0.85;69.48
78751;BME280;68070;50.954;11.060;2023-03-15T01:58:51;98548.63;;;0.93;69.15
78751;BME280;68070;50.954;11.060;2023-03-15T02:01:39;98543.40;;;0.88;69.20
78751;BME280;68070;50.954;11.060;2023-03-15T02:04:59;98551.45;;;0.84;69.45
78751;BME280;68070;50.954;11.060;2023-03-15T02:07:50;98550.79;;;0.95;69.03
78751;BME280;68070;50.954;11.060;2023-03-15T02:10:46;98549.33;;;0.85;69.23
78751;BME280;68070;50.954;11.060;2023-03-15T02:13:33;98553.90;;;0.76;70.19
78751;BME280;68070;50.954;11.060;2023-03-15T02:16:23;98551.05;;;0.77;70.12
78751;BME280;68070;50.954;11.060;2023-03-15T02:22:49;98547.45;;;0.63;70.32
78751;BME280;68070;50.954;11.060;2023-03-15T02:26:15;98546.15;;;0.73;70.02
78751;BME280;68070;50.954;11.060;2023-03-15T02:29:01;98553.27;;;0.62;70.70
78751;BME280;68070;50.954;11.060;2023-03-15T02:31:45;98554.92;;;0.64;70.56
78751;BME280;68070;50.954;11.060;2023-03-15T02:34:30;98557.67;;;0.61;71.07
78751;BME280;68070;50.954;11.060;2023-03-15T02:37:14;98557.79;;;0.50;71.34
78751;BME280;68070;50.954;11.060;2023-03-15T02:39:59;98556.14;;;0.52;70.94
78751;BME280;68070;50.954;11.060;2023-03-15T02:42:43;98561.80;;;0.54;71.25
78751;BME280;68070;50.954;11.060;2023-03-15T02:45:31;98567.80;;;0.45;71.40
78751;BME280;68070;50.954;11.060;2023-03-15T02:48:16;98570.60;;;0.45;71.26
78751;BME280;68070;50.954;11.060;2023-03-15T02:51:01;98570.84;;;0.48;71.27
78751;BME280;68070;50.954;11.060;2023-03-15T02:53:47;98575.34;;;0.40;71.38
78751;BME280;68070;50.954;11.060;2023-03-15T02:56:31;98578.30;;;0.37;71.89
78751;BME280;68070;50.954;11.060;2023-03-15T02:59:17;98579.21;;;0.40;71.54
78751;BME280;68070;50.954;11.060;2023-03-15T03:02:01;98584.91;;;0.33;71.17
78751;BME280;68070;50.954;11.060;2023-03-15T03:04:46;98586.29;;;0.29;71.43
78751;BME280;68070;50.954;11.060;2023-03-15T03:07:31;98587.58;;;0.37;71.06
78751;BME280;68070;50.954;11.060;2023-03-15T03:10:20;98587.81;;;0.35;70.79
78751;BME280;68070;50.954;11.060;2023-03-15T03:13:10;98591.23;;;0.28;71.24
78751;BME280;68070;50.954;11.060;2023-03-15T03:15:56;98594.73;;;0.28;70.72
78751;BME280;68070;50.954;11.060;2023-03-15T03:18:46;98603.59;;;0.39;70.02
78751;BME280;68070;50.954;11.060;2023-03-15T03:21:30;98603.17;;;0.36;70.36
78751;BME280;68070;50.954;11.060;2023-03-15T03:24:15;98601.27;;;0.31;70.69
78751;BME280;68070;50.954;11.060;2023-03-15T03:26:59;98603.08;;;0.21;70.76
78751;BME280;68070;50.954;11.060;2023-03-15T03:29:46;98602.57;;;0.20;70.97
78751;BME280;68070;50.954;11.060;2023-03-15T03:32:31;98600.89;;;0.19;71.32
78751;BME280;68070;50.954;11.060;2023-03-15T03:35:15;98607.39;;;0.09;71.05
78751;BME280;68070;50.954;11.060;2023-03-15T03:37:59;98604.73;;;0.01;71.69
78751;BME280;68070;50.954;11.060;2023-03-15T03:40:49;98609.29;;;0.02;72.25
78751;BME280;68070;50.954;11.060;2023-03-15T03:43:34;98611.88;;;0.02;72.22
78751;BME280;68070;50.954;11.060;2023-03-15T03:46:18;98615.92;;;0.02;71.93
78751;BME280;68070;50.954;11.060;2023-03-15T03:49:07;98620.73;;;0.12;71.92
78751;BME280;68070;50.954;11.060;2023-03-15T03:51:52;98625.11;;;0.12;72.12
78751;BME280;68070;50.954;11.060;2023-03-15T03:54:36;98624.85;;;0.06;72.85
78751;BME280;68070;50.954;11.060;2023-03-15T03:57:20;98625.89;;;0.15;71.71
78751;BME280;68070;50.954;11.060;2023-03-15T04:00:08;98624.00;;;0.18;71.24
78751;BME280;68070;50.954;11.060;2023-03-15T04:02:59;98631.19;;;0.18;71.20
78751;BME280;68070;50.954;11.060;2023-03-15T04:05:45;98632.52;;;0.29;70.97
78751;BME280;68070;50.954;11.060;2023-03-15T04:08:34;98643.06;;;0.32;70.71
78751;BME280;68070;50.954;11.060;2023-03-15T04:11:18;98648.02;;;0.27;71.08
78751;BME280;68070;50.954;11.060;2023-03-15T04:14:09;98653.70;;;0.42;70.42
78751;BME280;68070;50.954;11.060;2023-03-15T04:16:54;98664.13;;;0.48;70.06
78751;BME280;68070;50.954;11.060;2023-03-15T04:19:40;98670.85;;;0.46;69.94
78751;BME280;68070;50.954;11.060;2023-03-15T04:22:26;98673.86;;;0.55;69.12
78751;BME280;68070;50.954;11.060;2023-03-15T04:25:33;98674.77;;;0.58;68.74
78751;BME280;68070;50.954;11.060;2023-03-15T04:28:32;98677.14;;;0.51;69.09
78751;BME280;68070;50.954;11.060;2023-03-15T04:31:47;98682.31;;;0.53;68.64
78751;BME280;68070;50.954;11.060;2023-03-15T04:34:38;98680.44;;;0.61;68.91
78751;BME280;68070;50.954;11.060;2023-03-15T04:37:34;98677.52;;;0.55;68.46
78751;BME280;68070;50.954;11.060;2023-03-15T04:40:35;98666.86;;;0.54;68.47
78751;BME280;68070;50.954;11.060;2023-03-15T04:43:46;98674.77;;;0.63;68.90
78751;BME280;68070;50.954;11.060;2023-03-15T04:46:49;98683.92;;;0.57;69.21
78751;BME280;68070;50.954;11.060;2023-03-15T04:49:34;98685.38;;;0.51;69.40
78751;BME280;68070;50.954;11.060;2023-03-15T04:52:31;98688.02;;;0.60;69.21
78751;BME280;68070;50.954;11.060;2023-03-15T04:55:38;98685.11;;;0.58;69.16
78751;BME280;68070;50.954;11.060;2023-03-15T04:58:39;98686.23;;;0.51;69.36
78751;BME280;68070;50.954;11.060;2023-03-15T05:01:42;98691.38;;;0.54;69.29
78751;BME280;68070;50.954;11.060;2023-03-15T05:05:00;98695.66;;;0.70;68.93
78751;BME280;68070;50.954;11.060;2023-03-15T05:08:00;98700.56;;;0.66;68.75
78751;BME280;68070;50.954;11.060;2023-03-15T05:11:10;98701.13;;;0.69;69.15
78751;BME280;68070;50.954;11.060;2023-03-15T05:14:09;98707.44;;;0.81;68.51
78751;BME280;68070;50.954;11.060;2023-03-15T05:17:02;98698.96;;;0.84;67.93
78751;BME280;68070;50.954;11.060;2023-03-15T05:19:58;98703.54;;;0.83;68.27
78751;BME280;68070;50.954;11.060;2023-03-15T05:23:24;98709.89;;;0.86;67.66
78751;BME280;68070;50.954;11.060;2023-03-15T05:26:32;98711.86;;;0.94;67.39
78751;BME280;68070;50.954;11.060;2023-03-15T05:29:50;98717.30;;;0.90;67.78
78751;BME280;68070;50.954;11.060;2023-03-15T05:33:00;98720.44;;;0.86;68.30
78751;BME280;68070;50.954;11.060;2023-03-15T05:35:57;98731.16;;;0.93;68.20
78751;BME280;68070;50.954;11.060;2023-03-15T05:38:52;98730.64;;;0.84;68.77
78751;BME280;68070;50.954;11.060;2023-03-15T05:41:43;98738.52;;;0.85;68.71
78751;BME280;68070;50.954;11.060;2023-03-15T05:44:43;98742.97;;;1.00;67.97
78751;BME280;68070;50.954;11.060;2023-03-15T05:47:40;98745.55;;;1.06;68.17
78751;BME280;68070;50.954;11.060;2023-03-15T05:50:50;98751.15;;;1.01;68.38
78751;BME280;68070;50.954;11.060;2023-03-15T05:53:53;98759.31;;;1.08;68.58
78751;BME280;68070;50.954;11.060;2023-03-15T05:56:51;98762.48;;;1.16;67.81
78751;BME280;68070;50.954;11.060;2023-03-15T06:00:12;98766.00;;;1.15;68.18
78751;BME280;68070;50.954;11.060;2023-03-15T06:02:58;98771.67;;;1.19;68.48
78751;BME280;68070;50.954;11.060;2023-03-15T06:06:09;98770.77;;;1.32;68.31
78751;BME280;68070;50.954;11.060;2023-03-15T06:08:57;98773.98;;;1.31;68.81
78751;BME280;68070;50.954;11.060;2023-03-15T06:11:42;98775.98;;;1.29;69.33
78751;BME280;68070;50.954;11.060;2023-03-15T06:14:28;98779.65;;;1.37;69.70
78751;BME280;68070;50.954;11.060;2023-03-15T06:17:16;98790.56;;;1.40;70.01
78751;BME280;68070;50.954;11.060;2023-03-15T06:20:02;98790.98;;;1.39;70.58
78751;BME280;68070;50.954;11.060;2023-03-15T06:22:48;98797.00;;;1.50;70.58
78751;BME280;68070;50.954;11.060;2023-03-15T06:25:42;98803.46;;;1.60;70.71
78751;BME280;68070;50.954;11.060;2023-03-15T06:28:26;98810.21;;;1.58;70.90
78751;BME280;68070;50.954;11.060;2023-03-15T06:31:13;98813.33;;;1.59;71.16
78751;BME280;68070;50.954;11.060;2023-03-15T06:34:06;98817.42;;;1.65;71.54
78751;BME280;68070;50.954;11.060;2023-03-15T06:36:51;98821.50;;;1.60;71.94
78751;BME280;68070;50.954;11.060;2023-03-15T06:39:35;98820.66;;;1.59;72.48
78751;BME280;68070;50.954;11.060;2023-03-15T06:42:21;98826.95;;;1.64;72.77
78751;BME280;68070;50.954;11.060;2023-03-15T06:45:06;98829.44;;;1.63;72.72
78751;BME280;68070;50.954;11.060;2023-03-15T06:47:51;98830.86;;;1.59;73.03
78751;BME280;68070;50.954;11.060;2023-03-15T06:50:35;98835.43;;;1.67;72.74
78751;BME280;68070;50.954;11.060;2023-03-15T06:53:20;98837.73;;;1.67;72.82
78751;BME280;68070;50.954;11.060;2023-03-15T06:56:06;98845.39;;;1.63;73.00
78751;BME280;68070;50.954;11.060;2023-03-15T06:58:50;98846.86;;;1.67;73.06
78751;BME280;68070;50.954;11.060;2023-03-15T07:01:35;98849.00;;;1.65;73.08
78751;BME280;68070;50.954;11.060;2023-03-15T07:04:20;98853.58;;;1.61;73.61
78751;BME280;68070;50.954;11.060;2023-03-15T07:07:04;98857.05;;;1.66;73.39
78751;BME280;68070;50.954;11.060;2023-03-15T07:09:49;98857.36;;;1.71;73.13
78751;BME280;68070;50.954;11.060;2023-03-15T07:12:33;98859.28;;;1.67;73.51
78751;BME280;68070;50.954;11.060;2023-03-15T07:15:17;98862.51;;;1.74;73.55
78751;BME280;68070;50.954;11.060;2023-03-15T07:18:02;98866.27;;;1.84;73.34
78751;BME280;68070;50.954;11.060;2023-03-15T07:20:46;98870.34;;;1.88;73.40
78751;BME280;68070;50.954;11.060;2023-03-15T07:23:31;98876.25;;;1.85;73.55
78751;BME280;68070;50.954;11.060;2023-03-15T07:26:15;98875.23;;;1.93;73.30
78751;BME280;68070;50.954;11.060;2023-03-15T07:29:00;98879.56;;;1.94;73.22
78751;BME280;68070;50.954;11.060;2023-03-15T07:31:44;98879.02;;;1.90;73.72
78751;BME280;68070;50.954;11.060;2023-03-15T07:34:28;98879.23;;;1.97;73.67
78751;BME280;68070;50.954;11.060;2023-03-15T07:37:13;98879.63;;;2.00;73.69
78751;BME280;68070;50.954;11.060;2023-03-15T07:39:57;98883.83;;;1.96;73.41
78751;BME280;68070;50.954;11.060;2023-03-15T07:42:43;98883.85;;;1.96;73.61
78751;BME280;68070;50.954;11.060;2023-03-15T07:45:30;98886.38;;;2.16;73.52
78751;BME280;68070;50.954;11.060;2023-03-15T07:48:14;98892.98;;;2.25;73.27
78751;BME280;68070;50.954;11.060;2023-03-15T07:50:58;98896.30;;;2.26;73.08
78751;BME280;68070;50.954;11.060;2023-03-15T07:53:43;98898.91;;;2.34;72.94
78751;BME280;68070;50.954;11.060;2023-03-15T07:56:27;98897.42;;;2.28;73.13
78751;BME280;68070;50.954;11.060;2023-03-15T07:59:12;98898.77;;;2.25;73.05
78751;BME280;68070;50.954;11.060;2023-03-15T08:01:56;98901.91;;;2.33;72.93
78751;BME280;68070;50.954;11.060;2023-03-15T08:04:41;98901.94;;;2.38;72.86
78751;BME280;68070;50.954;11.060;2023-03-15T08:07:25;98905.97;;;2.42;73.05
78751;BME280;68070;50.954;11.060;2023-03-15T08:10:10;98903.59;;;2.48;73.11
78751;BME280;68070;50.954;11.060;2023-03-15T08:12:54;98903.58;;;2.64;72.55
78751;BME280;68070;50.954;11.060;2023-03-15T08:15:39;98905.13;;;2.77;72.22
78751;BME280;68070;50.954;11.060;2023-03-15T08:18:24;98907.49;;;2.87;71.41
78751;BME280;68070;50.954;11.060;2023-03-15T08:21:08;98912.19;;;2.91;71.14
78751;BME280;68070;50.954;11.060;2023-03-15T08:23:52;98912.59;;;3.06;70.95
78751;BME280;68070;50.954;11.060;2023-03-15T08:26:38;98914.89;;;3.02;70.55
78751;BME280;68070;50.954;11.060;2023-03-15T08:29:22;98916.77;;;2.99;71.03
78751;BME280;68070;50.954;11.060;2023-03-15T08:32:07;98922.48;;;3.08;70.64
78751;BME280;68070;50.954;11.060;2023-03-15T08:34:52;98920.30;;;3.14;70.72
78751;BME280;68070;50.954;11.060;2023-03-15T08:37:37;98922.33;;;3.12;70.28
78751;BME280;68070;50.954;11.060;2023-03-15T08:40:21;98932.02;;;3.19;70.27
78751;BME280;68070;50.954;11.060;2023-03-15T08:43:08;98932.80;;;3.36;70.02
78751;BME280;68070;50.954;11.060;2023-03-15T08:45:53;98936.46;;;3.55;69.30
78751;BME280;68070;50.954;11.060;2023-03-15T08:48:37;98940.79;;;3.65;69.41
78751;BME280;68070;50.954;11.060;2023-03-15T08:51:22;98946.86;;;3.85;69.16
78751;BME280;68070;50.954;11.060;2023-03-15T08:54:08;98946.92;;;4.08;69.27
78751;BME280;68070;50.954;11.060;2023-03-15T08:56:53;98950.80;;;4.29;67.67
78751;BME280;68070;50.954;11.060;2023-03-15T08:59:38;98955.59;;;4.46;67.64
78751;BME280;68070;50.954;11.060;2023-03-15T09:02:22;98955.13;;;4.69;66.88
78751;BME280;68070;50.954;11.060;2023-03-15T09:05:07;98954.77;;;4.73;66.08
78751;BME280;68070;50.954;11.060;2023-03-15T09:07:54;98950.69;;;4.59;65.37
78751;BME280;68070;50.954;11.060;2023-03-15T09:10:39;98956.89;;;4.55;65.87
78751;BME280;68070;50.954;11.060;2023-03-15T09:13:24;98957.45;;;4.55;65.38
78751;BME280;68070;50.954;11.060;2023-03-15T09:16:09;98959.80;;;4.43;66.34
78751;BME280;68070;50.954;11.060;2023-03-15T09:18:53;98968.97;;;4.39;66.90
78751;BME280;68070;50.954;11.060;2023-03-15T09:21:38;98970.15;;;4.40;66.30
78751;BME280;68070;50.954;11.060;2023-03-15T09:24:22;98976.02;;;4.43;66.45
78751;BME280;68070;50.954;11.060;2023-03-15T09:27:06;98975.89;;;4.53;66.21
78751;BME280;68070;50.954;11.060;2023-03-15T09:29:51;98977.61;;;4.60;66.36
78751;BME280;68070;50.954;11.060;2023-03-15T09:32:35;98984.77;;;4.75;65.88
78751;BME280;68070;50.954;11.060;2023-03-15T09:35:20;98983.37;;;4.75;64.47
78751;BME280;68070;50.954;11.060;2023-03-15T09:38:04;98985.30;;;4.75;65.72
78751;BME280;68070;50.954;11.060;2023-03-15T09:40:49;98988.56;;;4.90;65.66
78751;BME280;68070;50.954;11.060;2023-03-15T09:50:55;99003.23;;;4.70;65.37
78751;BME280;68070;50.954;11.060;2023-03-15T09:53:50;99004.79;;;4.66;65.90
78751;BME280;68070;50.954;11.060;2023-03-15T09:56:59;99012.83;;;4.82;65.89
78751;BME280;68070;50.954;11.060;2023-03-15T09:59:50;99018.30;;;4.88;64.57
78751;BME280;68070;50.954;11.060;2023-03-15T10:02:36;99019.09;;;4.86;64.28
78751;BME280;68070;50.954;11.060;2023-03-15T10:05:37;99023.38;;;4.96;64.32
78751;BME280;68070;50.954;11.060;2023-03-15T10:08:23;99025.71;;;4.99;64.11
78751;BME280;68070;50.954;11.060;2023-03-15T10:11:20;99022.61;;;5.04;63.53
78751;BME280;68070;50.954;11.060;2023-03-15T10:14:26;99025.23;;;5.05;63.96
78751;BME280;68070;50.954;11.060;2023-03-15T10:17:27;99024.63;;;5.19;63.90
78751;BME280;68070;50.954;11.060;2023-03-15T10:20:30;99022.24;;;5.50;63.44
78751;BME280;68070;50.954;11.060;2023-03-15T10:23:19;99023.82;;;5.73;62.93
78751;BME280;68070;50.954;11.060;2023-03-15T10:26:10;99024.37;;;5.79;62.56
78751;BME280;68070;50.954;11.060;2023-03-15T10:28:57;99024.61;;;5.66;62.38
78751;BME280;68070;50.954;11.060;2023-03-15T10:31:43;99024.46;;;5.59;62.26
78751;BME280;68070;50.954;11.060;2023-03-15T10:34:32;99025.25;;;5.47;61.88
78751;BME280;68070;50.954;11.060;2023-03-15T10:37:18;99040.45;;;5.20;63.13
78751;BME280;68070;50.954;11.060;2023-03-15T10:40:03;99038.73;;;4.71;65.32
78751;BME280;68070;50.954;11.060;2023-03-15T10:42:52;99045.94;;;4.18;66.64
78751;BME280;68070;50.954;11.060;2023-03-15T10:45:37;99047.33;;;3.67;69.17
78751;BME280;68070;50.954;11.060;2023-03-15T10:48:22;99054.91;;;3.28;70.90
78751;BME280;68070;50.954;11.060;2023-03-15T10:54:18;99061.48;;;3.03;71.95
78751;BME280;68070;50.954;11.060;2023-03-15T11:00:00;99076.62;;;2.98;71.44
78751;BME280;68070;50.954;11.060;2023-03-15T11:03:04;99089.48;;;2.76;73.26
78751;BME280;68070;50.954;11.060;2023-03-15T11:05:51;99090.83;;;2.39;74.77
78751;BME280;68070;50.954;11.060;2023-03-15T11:08:40;99100.20;;;2.07;75.76
78751;BME280;68070;50.954;11.060;2023-03-15T11:11:25;99102.34;;;1.88;77.02
78751;BME280;68070;50.954;11.060;2023-03-15T11:14:11;99105.25;;;1.66;77.91
78751;BME280;68070;50.954;11.060;2023-03-15T11:16:58;99093.39;;;1.50;77.99
78751;BME280;68070;50.954;11.060;2023-03-15T11:19:50;99092.31;;;1.51;79.13
78751;BME280;68070;50.954;11.060;2023-03-15T11:22:38;99090.77;;;1.70;78.51
78751;BME280;68070;50.954;11.060;2023-03-15T11:25:27;99088.45;;;1.88;78.50
78751;BME280;68070;50.954;11.060;2023-03-15T11:28:17;99083.01;;;2.24;77.56
78751;BME280;68070;50.954;11.060;2023-03-15T11:31:03;99083.16;;;2.63;76.93
78751;BME280;68070;50.954;11.060;2023-03-15T11:33:55;99083.07;;;3.03;75.63
78751;BME280;68070;50.954;11.060;2023-03-15T11:36:44;99083.55;;;3.36;74.63
78751;BME280;68070;50.954;11.060;2023-03-15T11:39:40;99080.34;;;3.61;73.58
78751;BME280;68070;50.954;11.060;2023-03-15T11:43:01;99075.73;;;3.76;72.32
78751;BME280;68070;50.954;11.060;2023-03-15T11:45:53;99074.59;;;4.01;72.21
78751;BME280;68070;50.954;11.060;2023-03-15T11:52:14;99062.65;;;6.24;69.03
78751;BME280;68070;50.954;11.060;2023-03-15T11:55:00;99057.73;;;7.53;64.00
78751;BME280;68070;50.954;11.060;2023-03-15T11:57:47;99061.55;;;7.54;63.36
78751;BME280;68070;50.954;11.060;2023-03-15T12:03:45;99066.54;;;6.95;63.84
78751;BME280;68070;50.954;11.060;2023-03-15T12:06:36;99070.25;;;6.16;64.16
78751;BME280;68070;50.954;11.060;2023-03-15T12:18:04;99067.17;;;4.84;69.04
78751;BME280;68070;50.954;11.060;2023-03-15T12:24:36;99068.42;;;5.65;68.78
78751;BME280;68070;50.954;11.060;2023-03-15T12:27:21;99062.46;;;5.80;66.39
78751;BME280;68070;50.954;11.060;2023-03-15T12:30:24;99066.92;;;5.73;67.03
78751;BME280;68070;50.954;11.060;2023-03-15T12:33:16;99081.17;;;5.44;66.96
78751;BME280;68070;50.954;11.060;2023-03-15T12:36:08;99082.75;;;5.01;64.57
78751;BME280;68070;50.954;11.060;2023-03-15T12:41:57;99087.70;;;4.58;64.50
78751;BME280;68070;50.954;11.060;2023-03-15T12:44:42;99085.31;;;4.60;63.91
78751;BME280;68070;50.954;11.060;2023-03-15T12:48:24;99084.92;;;4.92;64.41
78751;BME280;68070;50.954;11.060;2023-03-15T12:50:56;99088.13;;;5.56;63.87
78751;BME280;68070;50.954;11.060;2023-03-15T12:53:43;99087.02;;;5.64;61.10
78751;BME280;68070;50.954;11.060;2023-03-15T12:56:35;99089.49;;;5.50;61.73
78751;BME280;68070;50.954;11.060;2023-03-15T12:59:44;99088.84;;;5.30;62.14
78751;BME280;68070;50.954;11.060;2023-03-15T13:02:34;99086.25;;;4.94;60.86
78751;BME280;68070;50.954;11.060;2023-03-15T13:05:45;99090.92;;;4.71;61.62
78751;BME280;68070;50.954;11.060;2023-03-15T13:11:53;99093.52;;;4.47;61.77
78751;BME280;68070;50.954;11.060;2023-03-15T13:17:35;99099.32;;;4.44;61.96
78751;BME280;68070;50.954;11.060;2023-03-15T13:23:33;99097.99;;;4.67;61.56
78751;BME280;68070;50.954;11.060;2023-03-15T13:26:38;99102.45;;;4.69;59.01
78751;BME280;68070;50.954;11.060;2023-03-15T13:29:30;99110.97;;;4.69;56.13
78751;BME280;68070;50.954;11.060;2023-03-15T13:32:18;99112.05;;;4.68;54.14
78751;BME280;68070;50.954;11.060;2023-03-15T13:35:10;99115.00;;;4.80;53.86
78751;BME280;68070;50.954;11.060;2023-03-15T13:41:24;99114.13;;;5.22;53.53
78751;BME280;68070;50.954;11.060;2023-03-15T13:44:19;99110.64;;;5.31;53.06
78751;BME280;68070;50.954;11.060;2023-03-15T13:47:04;99113.02;;;5.33;51.00
78751;BME280;68070;50.954;11.060;2023-03-15T13:49:51;99114.52;;;5.51;52.62
78751;BME280;68070;50.954;11.060;2023-03-15T13:52:35;99116.36;;;5.47;50.63
78751;BME280;68070;50.954;11.060;2023-03-15T13:55:21;99116.55;;;5.43;52.15
78751;BME280;68070;50.954;11.060;2023-03-15T13:58:08;99115.64;;;5.43;52.41
78751;BME280;68070;50.954;11.060;2023-03-15T14:00:58;99116.17;;;5.43;52.36
78751;BME280;68070;50.954;11.060;2023-03-15T14:03:49;99119.98;;;5.42;52.69
78751;BME280;68070;50.954;11.060;2023-03-15T14:06:36;99121.48;;;5.53;51.66
78751;BME280;68070;50.954;11.060;2023-03-15T14:09:23;99117.15;;;5.88;51.09
78751;BME280;68070;50.954;11.060;2023-03-15T14:12:30;99117.43;;;6.35;51.62
78751;BME280;68070;50.954;11.060;2023-03-15T14:15:34;99120.45;;;6.54;48.64
78751;BME280;68070;50.954;11.060;2023-03-15T14:18:24;99129.91;;;6.20;46.88
78751;BME280;68070;50.954;11.060;2023-03-15T14:21:16;99130.81;;;6.04;48.75
78751;BME280;68070;50.954;11.060;2023-03-15T14:24:05;99132.88;;;6.02;48.26
78751;BME280;68070;50.954;11.060;2023-03-15T14:26:56;99133.63;;;5.87;48.92
78751;BME280;68070;50.954;11.060;2023-03-15T14:30:00;99136.53;;;5.86;47.34
78751;BME280;68070;50.954;11.060;2023-03-15T14:32:57;99133.80;;;5.94;47.60
78751;BME280;68070;50.954;11.060;2023-03-15T14:35:42;99139.72;;;6.06;46.89
78751;BME280;68070;50.954;11.060;2023-03-15T14:38:36;99139.73;;;6.12;45.90
78751;BME280;68070;50.954;11.060;2023-03-15T14:41:30;99142.45;;;6.18;45.61
78751;BME280;68070;50.954;11.060;2023-03-15T14:44:15;99146.32;;;6.11;44.65
78751;BME280;68070;50.954;11.060;2023-03-15T14:47:01;99144.52;;;6.15;44.40
78751;BME280;68070;50.954;11.060;2023-03-15T14:49:49;99147.09;;;6.20;43.49
78751;BME280;68070;50.954;11.060;2023-03-15T14:52:34;99146.83;;;6.25;43.21
78751;BME280;68070;50.954;11.060;2023-03-15T14:55:21;99147.27;;;6.36;44.30
78751;BME280;68070;50.954;11.060;2023-03-15T14:58:17;99147.63;;;6.61;44.53
78751;BME280;68070;50.954;11.060;2023-03-15T15:01:02;99149.88;;;6.98;44.91
78751;BME280;68070;50.954;11.060;2023-03-15T15:03:54;99151.45;;;7.20;47.75
78751;BME280;68070;50.954;11.060;2023-03-15T15:06:41;99161.65;;;7.06;48.57
78751;BME280;68070;50.954;11.060;2023-03-15T15:09:34;99163.09;;;6.90;49.56
78751;BME280;68070;50.954;11.060;2023-03-15T15:12:19;99171.78;;;6.40;50.41
78751;BME280;68070;50.954;11.060;2023-03-15T15:15:18;99175.78;;;6.05;51.42
78751;BME280;68070;50.954;11.060;2023-03-15T15:18:03;99178.68;;;5.80;52.43
78751;BME280;68070;50.954;11.060;2023-03-15T15:20:47;99181.73;;;5.69;53.25
78751;BME280;68070;50.954;11.060;2023-03-15T15:23:37;99183.23;;;5.64;53.45
78751;BME280;68070;50.954;11.060;2023-03-15T15:26:25;99184.57;;;5.82;52.54
78751;BME280;68070;50.954;11.060;2023-03-15T15:29:14;99192.63;;;5.94;51.05
78751;BME280;68070;50.954;11.060;2023-03-15T15:31:59;99198.79;;;6.08;50.62
78751;BME280;68070;50.954;11.060;2023-03-15T15:34:44;99199.08;;;6.06;50.06
78751;BME280;68070;50.954;11.060;2023-03-15T15:37:28;99197.46;;;6.06;50.91
78751;BME280;68070;50.954;11.060;2023-03-15T15:40:22;99197.63;;;5.93;50.21
78751;BME280;68070;50.954;11.060;2023-03-15T15:43:10;99206.12;;;5.86;49.81
78751;BME280;68070;50.954;11.060;2023-03-15T15:45:55;99206.48;;;5.76;49.12
78751;BME280;68070;50.954;11.060;2023-03-15T15:48:39;99205.87;;;5.74;49.92
78751;BME280;68070;50.954;11.060;2023-03-15T15:51:30;99214.60;;;5.69;50.70